Time;durP1;ratioP1;P1;durP2;ratioP2;P2;SDS_P1;SDS_P2;PMS_P1;PMS_P2;Temp;Humidity;BMP_temperature;BMP_pressure;BME280_temperature;BME280_humidity;BME280_pressure;Samples;Min_cycle;Max_cycle;Signal;HPM_P1;HPM_P2
2021/08/09 00:01:20;;;;;;;8.67;4.70;;;16.80;99.90;;;;;;4415973;28;658298;-68
2021/08/09 00:04:08;;;;;;;7.13;4.27;;;16.70;99.90;;;;;;4401272;28;657024;-69
2021/08/09 00:06:56;;;;;;;9.27;4.30;;;16.50;99.90;;;;;;4428171;28;656768;-69
2021/08/09 00:09:43;;;;;;;6.97;3.80;;;16.50;99.90;;;;;;4401058;28;656994;-69
2021/08/09 00:12:32;;;;;;;7.03;4.40;;;16.40;99.90;;;;;;4448088;28;657517;-69
2021/08/09 00:15:20;;;;;;;8.43;4.43;;;16.40;99.90;;;;;;4408949;28;657667;-69
2021/08/09 00:18:08;;;;;;;24.43;6.07;;;16.40;99.90;;;;;;4416699;28;656466;-69
2021/08/09 00:20:57;;;;;;;9.73;5.63;;;16.40;99.90;;;;;;4420901;28;658379;-69
2021/08/09 00:23:45;;;;;;;68.53;7.60;;;16.50;99.90;;;;;;4408025;28;657399;-69
2021/08/09 00:26:34;;;;;;;14.53;6.30;;;16.50;99.90;;;;;;4411860;28;657559;-69
2021/08/09 00:29:23;;;;;;;38.50;6.93;;;16.50;99.90;;;;;;4388738;28;657615;-69
2021/08/09 00:32:10;;;;;;;78.73;8.77;;;16.60;99.90;;;;;;4390611;28;657937;-69
2021/08/09 00:34:58;;;;;;;57.00;9.30;;;16.60;99.90;;;;;;4412687;28;657627;-69
2021/08/09 00:37:45;;;;;;;44.17;9.00;;;16.70;99.90;;;;;;4412370;28;658370;-69
2021/08/09 00:40:33;;;;;;;32.60;9.30;;;16.70;99.90;;;;;;4405569;28;658004;-69
2021/08/09 00:43:21;;;;;;;16.47;7.30;;;16.70;99.90;;;;;;4419053;28;658926;-69
2021/08/09 00:46:10;;;;;;;9.70;6.90;;;16.70;99.90;;;;;;4406803;28;658129;-69
2021/08/09 00:48:58;;;;;;;8.70;6.50;;;16.60;99.90;;;;;;4402514;28;656738;-69
2021/08/09 00:51:46;;;;;;;8.73;6.47;;;16.60;99.90;;;;;;4414307;28;656163;-69
2021/08/09 00:54:34;;;;;;;10.20;6.30;;;16.50;99.90;;;;;;4393423;28;656707;-69
2021/08/09 00:57:21;;;;;;;10.13;6.03;;;16.60;99.90;;;;;;4421045;28;657911;-69
2021/08/09 01:00:09;;;;;;;11.48;7.10;;;16.60;99.90;;;;;;4405170;28;658251;-69
2021/08/09 01:02:58;;;;;;;11.23;7.60;;;16.50;99.90;;;;;;4423039;28;657132;-69
2021/08/09 01:05:49;;;;;;;13.13;7.93;;;16.50;99.90;;;;;;4407804;28;658222;-69
2021/08/09 01:08:44;;;;;;;12.97;8.33;;;16.50;99.90;;;;;;4397930;28;657426;-69
2021/08/09 01:11:33;;;;;;;11.70;7.93;;;16.50;99.90;;;;;;4399873;28;657993;-69
2021/08/09 01:14:26;;;;;;;12.97;8.50;;;16.40;99.90;;;;;;4403753;28;657847;-69
2021/08/09 01:17:13;;;;;;;15.23;8.07;;;16.40;99.90;;;;;;4388593;28;657259;-69
2021/08/09 01:20:09;;;;;;;14.47;8.73;;;16.40;99.90;;;;;;4428688;28;658716;-69
2021/08/09 01:23:05;;;;;;;12.03;8.17;;;16.30;99.90;;;;;;4408603;28;657568;-69
2021/08/09 01:25:55;;;;;;;12.27;7.73;;;16.30;99.90;;;;;;4395885;28;658093;-69
2021/08/09 01:28:44;;;;;;;11.37;7.33;;;16.30;99.90;;;;;;4394343;28;657440;-69
2021/08/09 01:31:33;;;;;;;9.97;7.27;;;16.30;99.90;;;;;;4408400;28;658159;-69
2021/08/09 01:34:21;;;;;;;14.50;8.47;;;16.30;99.90;;;;;;4397402;28;657179;-69
2021/08/09 01:37:09;;;;;;;13.67;8.30;;;16.30;99.90;;;;;;4403805;28;657701;-69
2021/08/09 01:39:56;;;;;;;14.00;8.73;;;16.30;99.90;;;;;;4414016;28;658721;-69
2021/08/09 01:42:45;;;;;;;17.60;8.10;;;16.30;99.90;;;;;;4401713;28;657807;-69
2021/08/09 01:45:34;;;;;;;11.33;7.17;;;16.20;99.90;;;;;;4423907;28;657957;-69
2021/08/09 01:48:21;;;;;;;13.20;7.83;;;16.20;99.90;;;;;;4392366;28;657790;-69
2021/08/09 01:51:09;;;;;;;13.57;7.97;;;16.20;99.90;;;;;;4406038;28;657674;-69
2021/08/09 01:53:56;;;;;;;15.73;8.03;;;16.10;99.90;;;;;;4424258;28;657842;-69
2021/08/09 01:56:44;;;;;;;11.80;7.03;;;16.10;99.90;;;;;;4406346;28;658164;-69
2021/08/09 01:59:32;;;;;;;12.60;7.50;;;16.00;99.90;;;;;;4431777;28;657411;-69
2021/08/09 02:02:25;;;;;;;11.10;7.93;;;16.00;99.90;;;;;;4417590;28;658099;-69
2021/08/09 02:05:14;;;;;;;11.17;7.90;;;16.00;99.90;;;;;;4401219;28;658067;-69
2021/08/09 02:08:02;;;;;;;11.23;7.90;;;16.00;99.90;;;;;;4443871;28;657300;-69
2021/08/09 02:10:52;;;;;;;11.40;7.73;;;16.00;99.90;;;;;;4412807;28;657834;-69
2021/08/09 02:13:41;;;;;;;10.67;7.27;;;16.00;99.90;;;;;;4400502;28;657528;-69
2021/08/09 02:16:31;;;;;;;12.37;7.63;;;16.10;99.90;;;;;;4408781;28;657803;-69
2021/08/09 02:19:23;;;;;;;12.83;7.17;;;16.00;99.90;;;;;;4411645;28;657461;-69
2021/08/09 02:22:12;;;;;;;10.63;6.90;;;16.00;99.90;;;;;;4414020;28;657877;-69
2021/08/09 02:25:05;;;;;;;10.93;7.00;;;16.00;99.90;;;;;;4413372;28;658406;-69
2021/08/09 02:27:55;;;;;;;12.37;7.73;;;15.90;99.90;;;;;;4395511;28;657364;-69
2021/08/09 02:30:44;;;;;;;11.97;8.03;;;15.90;99.90;;;;;;4382538;28;657782;-69
2021/08/09 02:33:32;;;;;;;10.87;7.53;;;15.90;99.90;;;;;;4433049;28;657221;-69
2021/08/09 02:36:21;;;;;;;20.83;9.13;;;15.90;99.90;;;;;;4421105;28;657552;-69
2021/08/09 02:39:08;;;;;;;24.40;11.00;;;15.90;99.90;;;;;;4417204;28;658134;-69
2021/08/09 02:41:56;;;;;;;17.97;10.97;;;15.90;99.90;;;;;;4445471;28;659492;-69
2021/08/09 02:44:43;;;;;;;20.23;10.53;;;15.80;99.90;;;;;;4415754;28;658831;-69
2021/08/09 02:47:33;;;;;;;18.93;10.23;;;15.80;99.90;;;;;;4442182;28;659659;-69
2021/08/09 02:50:21;;;;;;;16.97;10.67;;;15.80;99.90;;;;;;4405099;28;659373;-69
2021/08/09 02:53:10;;;;;;;17.67;10.13;;;15.80;99.90;;;;;;4405222;28;658773;-69
2021/08/09 02:55:58;;;;;;;20.20;10.00;;;15.80;99.90;;;;;;4419400;28;658447;-69
2021/08/09 02:58:46;;;;;;;22.23;9.93;;;15.70;99.90;;;;;;4405122;28;659514;-69
2021/08/09 03:01:33;;;;;;;15.87;9.73;;;15.70;99.90;;;;;;4412646;28;657899;-69
2021/08/09 03:04:22;;;;;;;276.85;14.02;;;15.60;99.90;;;;;;4429791;28;658241;-69
2021/08/09 03:07:10;;;;;;;23.50;10.33;;;15.60;99.90;;;;;;4401166;28;660367;-69
2021/08/09 03:09:59;;;;;;;20.40;8.90;;;15.50;99.90;;;;;;4410160;28;659275;-69
2021/08/09 03:12:47;;;;;;;27.37;9.13;;;15.40;99.90;;;;;;4423446;28;657636;-68
2021/08/09 03:15:35;;;;;;;18.67;8.80;;;15.30;99.90;;;;;;4409073;28;658944;-68
2021/08/09 03:18:22;;;;;;;19.00;8.03;;;15.30;99.90;;;;;;4413345;28;657945;-68
2021/08/09 03:21:10;;;;;;;14.83;8.47;;;15.30;99.90;;;;;;4405866;28;658900;-68
2021/08/09 03:24:05;;;;;;;13.97;8.63;;;15.40;99.90;;;;;;4408099;28;657960;-68
2021/08/09 03:27:16;;;;;;;23.33;8.80;;;15.20;99.90;;;;;;4407037;28;657414;-68
2021/08/09 03:30:04;;;;;;;20.00;8.57;;;15.10;99.90;;;;;;4409374;28;657962;-68
2021/08/09 03:32:52;;;;;;;15.00;7.97;;;15.10;99.90;;;;;;4419790;28;657116;-68
2021/08/09 03:35:39;;;;;;;13.73;8.43;;;15.00;99.90;;;;;;4414056;28;658398;-68
2021/08/09 03:38:27;;;;;;;104.63;10.27;;;15.00;99.90;;;;;;4419873;28;658067;-68
2021/08/09 03:41:15;;;;;;;29.43;9.83;;;15.00;99.90;;;;;;4403933;28;660916;-68
2021/08/09 03:44:04;;;;;;;73.33;9.37;;;15.00;99.90;;;;;;4435504;28;657813;-68
2021/08/09 03:46:51;;;;;;;83.00;9.23;;;14.90;99.90;;;;;;4394234;28;657850;-68
2021/08/09 03:49:39;;;;;;;105.73;10.40;;;14.90;99.90;;;;;;4403681;28;657887;-68
2021/08/09 03:52:26;;;;;;;108.73;9.93;;;14.80;99.90;;;;;;4427480;28;659502;-68
2021/08/09 03:55:14;;;;;;;55.47;11.02;;;14.80;99.90;;;;;;4400168;28;658707;-68
2021/08/09 03:58:02;;;;;;;77.97;8.77;;;14.80;99.90;;;;;;4424601;28;658029;-68
2021/08/09 04:00:51;;;;;;;315.27;10.30;;;14.80;99.90;;;;;;4395264;28;658274;-68
2021/08/09 04:03:38;;;;;;;86.10;8.10;;;14.70;99.90;;;;;;4399085;28;660041;-68
2021/08/09 04:06:26;;;;;;;162.60;8.43;;;14.70;99.90;;;;;;4422745;28;659241;-68
2021/08/09 04:09:13;;;;;;;88.40;8.33;;;14.70;99.90;;;;;;4393280;28;658633;-68
2021/08/09 04:12:01;;;;;;;89.93;9.30;;;14.70;99.90;;;;;;4424792;28;658116;-68
2021/08/09 04:14:49;;;;;;;68.73;8.17;;;14.80;99.90;;;;;;4400073;28;657354;-68
2021/08/09 04:17:38;;;;;;;57.23;7.13;;;14.80;99.90;;;;;;4416776;28;657849;-68
2021/08/09 04:20:25;;;;;;;78.43;7.23;;;14.80;99.90;;;;;;4409870;28;658114;-68
2021/08/09 04:23:16;;;;;;;11.30;5.75;;;14.80;99.90;;;;;;4413110;28;657384;-68
2021/08/09 04:26:03;;;;;;;12.67;5.27;;;14.80;99.90;;;;;;4420633;28;657506;-68
2021/08/09 04:28:51;;;;;;;7.27;5.00;;;14.80;99.90;;;;;;4433697;28;657743;-68
2021/08/09 04:31:42;;;;;;;8.87;5.47;;;14.80;99.90;;;;;;4420168;28;656626;-68
2021/08/09 04:34:31;;;;;;;10.67;5.80;;;14.90;99.90;;;;;;4415899;28;657222;-68
2021/08/09 04:37:20;;;;;;;14.73;5.93;;;14.90;99.90;;;;;;4417950;28;658624;-69
2021/08/09 04:40:08;;;;;;;8.10;5.13;;;15.00;99.90;;;;;;4417960;28;657661;-68
2021/08/09 04:42:55;;;;;;;14.90;5.40;;;15.10;99.90;;;;;;4417440;28;657467;-68
2021/08/09 04:45:43;;;;;;;13.35;5.05;;;15.20;99.90;;;;;;4414715;28;657554;-68
2021/08/09 04:48:31;;;;;;;11.37;5.00;;;15.30;99.90;;;;;;4422121;28;659059;-68
2021/08/09 04:51:20;;;;;;;7.37;4.37;;;15.30;99.90;;;;;;4424404;28;657488;-68
2021/08/09 04:54:07;;;;;;;7.47;4.20;;;15.40;99.90;;;;;;4429102;28;656351;-68
2021/08/09 04:56:55;;;;;;;6.33;4.47;;;15.60;99.90;;;;;;4395115;28;657611;-69
2021/08/09 04:59:42;;;;;;;8.97;4.33;;;15.70;99.90;;;;;;4424493;28;656776;-68
2021/08/09 05:02:30;;;;;;;11.57;4.77;;;15.80;99.90;;;;;;4420150;28;657072;-68
2021/08/09 05:05:18;;;;;;;7.30;4.73;;;15.90;99.90;;;;;;4416710;28;658142;-68
2021/08/09 05:08:07;;;;;;;10.97;5.00;;;16.00;99.90;;;;;;4438251;28;657388;-69
2021/08/09 05:10:55;;;;;;;10.73;5.17;;;16.10;99.90;;;;;;4416164;28;658402;-69
2021/08/09 05:13:43;;;;;;;7.63;4.90;;;16.10;99.90;;;;;;4428963;28;657552;-69
2021/08/09 05:16:33;;;;;;;10.93;4.67;;;16.20;99.90;;;;;;4446937;28;657181;-68
2021/08/09 05:19:21;;;;;;;9.27;5.23;;;16.20;99.90;;;;;;4413150;28;657818;-69
2021/08/09 05:22:08;;;;;;;8.73;5.30;;;16.30;99.90;;;;;;4419847;28;656520;-68
2021/08/09 05:24:58;;;;;;;6.47;4.83;;;16.40;99.90;;;;;;4437620;28;657270;-68
2021/08/09 05:27:45;;;;;;;8.10;4.47;;;16.50;99.90;;;;;;4412057;28;657797;-69
2021/08/09 05:30:33;;;;;;;7.30;4.57;;;16.50;99.90;;;;;;4416278;28;656384;-69
2021/08/09 05:33:21;;;;;;;7.13;3.87;;;16.60;99.90;;;;;;4435609;28;657541;-69
2021/08/09 05:36:08;;;;;;;6.30;4.07;;;16.60;99.90;;;;;;4420425;28;656707;-69
2021/08/09 05:38:56;;;;;;;7.13;3.93;;;16.70;99.90;;;;;;4438673;28;657519;-69
2021/08/09 05:41:45;;;;;;;8.17;3.50;;;16.80;99.90;;;;;;4416941;28;656734;-69
2021/08/09 05:44:33;;;;;;;5.63;3.10;;;16.90;99.90;;;;;;4424484;28;656459;-69
2021/08/09 05:47:21;;;;;;;7.43;2.60;;;17.00;99.90;;;;;;4444498;28;656551;-68
2021/08/09 05:50:09;;;;;;;6.33;2.57;;;17.00;99.90;;;;;;4414856;28;657166;-69
2021/08/09 05:52:57;;;;;;;5.87;2.40;;;17.10;99.90;;;;;;4444276;28;657094;-68
2021/08/09 05:55:45;;;;;;;8.17;2.30;;;17.10;99.90;;;;;;4413324;28;658358;-69
2021/08/09 05:58:34;;;;;;;4.63;2.10;;;17.10;99.90;;;;;;4451476;28;656666;-69
2021/08/09 06:01:21;;;;;;;2.80;1.90;;;17.20;99.90;;;;;;4417841;28;656784;-69
2021/08/09 06:04:09;;;;;;;3.90;1.70;;;17.20;99.90;;;;;;4420008;28;656727;-68
2021/08/09 06:06:57;;;;;;;2.47;1.90;;;17.30;99.90;;;;;;4434207;28;656704;-69
2021/08/09 06:09:45;;;;;;;1.90;1.70;;;17.30;99.90;;;;;;4412965;28;656361;-68
2021/08/09 06:12:33;;;;;;;4.77;1.70;;;17.40;99.90;;;;;;4449490;28;656376;-68
2021/08/09 06:15:23;;;;;;;4.63;1.57;;;17.50;99.90;;;;;;4414341;28;657494;-68
2021/08/09 06:18:10;;;;;;;2.00;1.57;;;17.60;99.90;;;;;;4423199;28;656975;-69
2021/08/09 06:20:58;;;;;;;2.67;1.60;;;17.60;99.90;;;;;;4420334;28;656574;-69
2021/08/09 06:23:46;;;;;;;2.93;1.90;;;17.70;99.90;;;;;;4439689;28;656459;-68
2021/08/09 06:26:33;;;;;;;3.37;1.67;;;17.80;99.90;;;;;;4420666;28;656932;-68
2021/08/09 06:29:21;;;;;;;3.47;1.60;;;17.90;99.90;;;;;;4438345;28;657650;-68
2021/08/09 06:32:10;;;;;;;4.80;2.17;;;18.00;99.90;;;;;;4428962;28;656847;-69
2021/08/09 06:34:58;;;;;;;2.13;1.47;;;18.10;99.90;;;;;;4439376;28;656496;-68
2021/08/09 06:37:46;;;;;;;3.33;1.80;;;18.10;99.90;;;;;;4448507;28;656982;-68
2021/08/09 06:40:33;;;;;;;5.30;1.47;;;18.20;99.90;;;;;;4418223;28;656830;-68
2021/08/09 06:43:21;;;;;;;5.23;1.53;;;18.20;99.90;;;;;;4448395;28;657798;-68
2021/08/09 06:46:09;;;;;;;2.27;1.50;;;18.30;99.90;;;;;;4428078;28;656270;-69
2021/08/09 06:48:58;;;;;;;3.30;1.50;;;18.50;99.90;;;;;;4434885;28;657314;-68
2021/08/09 06:51:46;;;;;;;7.57;1.63;;;18.50;99.90;;;;;;4418918;28;656400;-68
2021/08/09 06:54:33;;;;;;;2.63;1.40;;;18.60;99.90;;;;;;4425416;28;656621;-69
2021/08/09 06:57:21;;;;;;;3.03;1.70;;;18.70;99.90;;;;;;4443966;28;657249;-69
2021/08/09 07:00:10;;;;;;;2.80;1.60;;;18.70;99.90;;;;;;4417539;28;656462;-69
2021/08/09 07:02:58;;;;;;;2.83;1.50;;;18.80;99.90;;;;;;4424171;28;656779;-69
2021/08/09 07:05:48;;;;;;;3.93;1.30;;;19.00;99.90;;;;;;4433704;28;657272;-69
2021/08/09 07:08:35;;;;;;;2.23;1.20;;;19.10;99.90;;;;;;4396666;28;657143;-69
2021/08/09 07:11:23;;;;;;;3.37;1.27;;;19.20;99.90;;;;;;4405257;28;656740;-69
2021/08/09 07:14:11;;;;;;;4.07;1.30;;;19.30;99.90;;;;;;4442664;28;657060;-69
2021/08/09 07:16:59;;;;;;;5.10;1.70;;;19.30;99.90;;;;;;4417166;28;657586;-68
2021/08/09 07:19:46;;;;;;;2.47;1.30;;;19.40;99.90;;;;;;4448482;28;657088;-68
2021/08/09 07:22:35;;;;;;;3.67;1.70;;;19.40;99.90;;;;;;4422513;28;657028;-68
2021/08/09 07:25:23;;;;;;;2.43;1.60;;;19.50;99.90;;;;;;4426364;28;657225;-68
2021/08/09 07:28:11;;;;;;;2.50;1.37;;;19.70;99.90;;;;;;4443838;28;657060;-68
2021/08/09 07:30:58;;;;;;;5.67;1.80;;;19.80;99.90;;;;;;4420337;28;656733;-68
2021/08/09 07:33:47;;;;;;;1.67;1.23;;;19.90;99.90;;;;;;4446462;28;657178;-68
2021/08/09 07:36:35;;;;;;;4.37;1.40;;;19.90;99.90;;;;;;4411324;28;657776;-68
2021/08/09 07:39:24;;;;;;;4.00;1.47;;;20.10;99.90;;;;;;4435181;28;656490;-68
2021/08/09 07:42:12;;;;;;;3.27;1.47;;;20.40;99.90;;;;;;4419944;28;656643;-68
2021/08/09 07:45:00;;;;;;;6.10;1.37;;;20.40;99.90;;;;;;4413048;28;658158;-68
2021/08/09 07:47:52;;;;;;;5.37;1.23;;;20.60;99.90;;;;;;4437476;28;656322;-68
2021/08/09 07:50:40;;;;;;;1.90;1.33;;;20.70;99.90;;;;;;4422700;28;658419;-68
2021/08/09 07:53:28;;;;;;;4.23;1.27;;;20.60;99.90;;;;;;4433813;28;656466;-68
2021/08/09 07:56:18;;;;;;;4.10;1.37;;;20.60;99.90;;;;;;4412449;28;657842;-68
2021/08/09 07:59:06;;;;;;;3.13;1.20;;;20.80;99.90;;;;;;4422161;28;657889;-69
2021/08/09 08:01:53;;;;;;;1.80;1.03;;;20.80;99.90;;;;;;4412666;28;656658;-69
2021/08/09 08:04:43;;;;;;;3.83;1.20;;;20.90;99.90;;;;;;4433739;28;657318;-68
2021/08/09 08:07:32;;;;;;;3.27;1.40;;;21.00;99.90;;;;;;4423085;28;657264;-68
2021/08/09 08:10:20;;;;;;;2.87;1.20;;;21.20;99.90;;;;;;4415024;28;656727;-68
2021/08/09 08:13:09;;;;;;;1.73;1.00;;;21.20;99.90;;;;;;4447231;28;656364;-68
2021/08/09 08:15:56;;;;;;;3.10;1.00;;;21.40;99.90;;;;;;4421104;28;656551;-69
2021/08/09 08:18:44;;;;;;;1.07;0.90;;;21.50;99.90;;;;;;4413351;28;656450;-68
2021/08/09 08:21:32;;;;;;;1.90;1.27;;;21.20;99.90;;;;;;4432130;28;656602;-68
2021/08/09 08:24:20;;;;;;;1.67;1.20;;;21.20;99.90;;;;;;4416531;28;657696;-69
2021/08/09 08:27:07;;;;;;;3.00;1.10;;;21.30;99.90;;;;;;4422840;28;656286;-68
2021/08/09 08:29:56;;;;;;;3.73;1.30;;;21.30;99.90;;;;;;4405133;28;657565;-68
2021/08/09 08:32:44;;;;;;;3.37;1.40;;;21.60;99.90;;;;;;4417713;28;656278;-68
2021/08/09 08:35:32;;;;;;;1.30;1.10;;;22.00;99.90;;;;;;4443685;28;658077;-68
2021/08/09 08:38:20;;;;;;;2.57;1.43;;;22.30;99.90;;;;;;4426321;28;657833;-68
2021/08/09 08:41:07;;;;;;;2.83;1.20;;;22.60;99.90;;;;;;4439203;28;656747;-69
2021/08/09 08:43:55;;;;;;;2.80;1.50;;;22.60;99.90;;;;;;4413501;28;656653;-68
2021/08/09 08:46:44;;;;;;;1.97;1.43;;;22.30;99.90;;;;;;4423522;28;656543;-69
2021/08/09 08:49:32;;;;;;;4.63;1.20;;;22.60;99.90;;;;;;4442081;28;656309;-68
2021/08/09 08:52:19;;;;;;;1.77;1.20;;;23.00;99.90;;;;;;4396187;28;657797;-68
2021/08/09 08:55:08;;;;;;;3.10;1.13;;;23.40;99.90;;;;;;4431199;28;656714;-68
2021/08/09 08:57:56;;;;;;;3.20;1.30;;;23.50;99.90;;;;;;4411107;28;656721;-68
2021/08/09 09:00:43;;;;;;;3.53;1.43;;;23.20;99.90;;;;;;4397059;28;656658;-68
2021/08/09 09:03:33;;;;;;;3.90;1.23;;;23.30;99.90;;;;;;4431602;28;658566;-68
2021/08/09 09:06:20;;;;;;;2.97;1.40;;;23.40;99.90;;;;;;4399627;28;657187;-68
2021/08/09 09:09:08;;;;;;;5.23;1.53;;;23.40;99.90;;;;;;4422229;28;656878;-68
2021/08/09 09:11:56;;;;;;;5.13;1.40;;;23.30;99.90;;;;;;4428989;28;656862;-68
2021/08/09 09:14:44;;;;;;;1.77;1.33;;;23.40;99.90;;;;;;4419140;28;656724;-68
2021/08/09 09:17:34;;;;;;;2.23;1.33;;;23.30;99.90;;;;;;4423997;28;657536;-69
2021/08/09 09:20:24;;;;;;;5.37;1.50;;;23.60;99.90;;;;;;4401140;28;656775;-68
2021/08/09 09:23:14;;;;;;;1.85;1.15;;;23.90;99.90;;;;;;4403131;28;656522;-69
2021/08/09 09:26:02;;;;;;;3.40;1.30;;;24.30;99.90;;;;;;4416320;28;657145;-69
2021/08/09 09:28:50;;;;;;;1.30;1.20;;;24.50;99.90;;;;;;4404739;28;656944;-68
2021/08/09 09:31:38;;;;;;;4.57;1.37;;;24.10;99.90;;;;;;4426966;28;657149;-69
2021/08/09 09:34:26;;;;;;;4.50;1.20;;;24.20;99.90;;;;;;4421291;28;657076;-69
2021/08/09 09:37:22;;;;;;;3.33;1.40;;;24.50;99.90;;;;;;4405528;28;656508;-69
2021/08/09 09:40:11;;;;;;;3.00;1.10;;;24.60;99.90;;;;;;4402335;28;656727;-69
2021/08/09 09:42:59;;;;;;;8.60;1.58;;;25.00;99.90;;;;;;4421598;28;656477;-69
2021/08/09 09:45:51;;;;;;;3.05;1.55;;;24.50;99.90;;;;;;4437056;28;657401;-69
2021/08/09 09:48:39;;;;;;;2.70;1.52;;;24.50;99.90;;;;;;4419620;28;656761;-68
2021/08/09 09:51:27;;;;;;;1.95;1.13;;;24.80;99.90;;;;;;4434579;28;656401;-69
2021/08/09 09:54:16;;;;;;;4.28;1.40;;;24.70;99.90;;;;;;4400261;28;656885;-69
2021/08/09 09:57:04;;;;;;;2.78;1.20;;;25.10;99.90;;;;;;4406840;28;657052;-68
2021/08/09 09:59:52;;;;;;;3.60;1.52;;;24.90;99.90;;;;;;4427105;28;658848;-68
2021/08/09 10:02:39;;;;;;;2.47;1.48;;;25.00;99.90;;;;;;4407926;28;656691;-68
2021/08/09 10:05:27;;;;;;;3.03;1.45;;;25.00;99.90;;;;;;4418791;28;657533;-68
2021/08/09 10:08:15;;;;;;;3.05;1.17;;;25.30;99.90;;;;;;4403197;28;657290;-68
2021/08/09 10:11:06;;;;;;;3.35;1.33;;;25.60;99.90;;;;;;4416338;28;656621;-69
2021/08/09 10:13:53;;;;;;;2.97;1.35;;;25.50;99.90;;;;;;4401451;28;657081;-69
2021/08/09 10:16:41;;;;;;;1.52;1.15;;;25.70;99.90;;;;;;4426709;28;657967;-68
2021/08/09 10:19:28;;;;;;;2.80;1.50;;;26.00;99.90;;;;;;4413914;28;656720;-69
2021/08/09 10:22:19;;;;;;;3.43;1.43;;;26.40;99.90;;;;;;4440223;28;656124;-69
2021/08/09 10:25:08;;;;;;;5.18;1.40;;;26.60;99.90;;;;;;4419482;28;657096;-69
2021/08/09 10:28:03;;;;;;;3.03;1.60;;;26.20;99.90;;;;;;4409665;28;657780;-68
2021/08/09 10:30:51;;;;;;;5.95;1.60;;;26.30;99.90;;;;;;4400506;28;657112;-68
2021/08/09 10:33:53;;;;;;;3.80;1.55;;;26.30;99.90;;;;;;4420951;28;656542;-68
2021/08/09 10:37:07;;;;;;;6.32;1.55;;;25.90;99.90;;;;;;4408306;28;657198;-68
2021/08/09 10:39:56;;;;;;;5.68;1.50;;;25.90;99.90;;;;;;4397510;28;656471;-68
2021/08/09 10:42:44;;;;;;;1.73;1.42;;;26.00;99.90;;;;;;4403205;28;656964;-68
2021/08/09 10:45:40;;;;;;;4.40;1.67;;;26.50;99.90;;;;;;4428715;28;656852;-70
2021/08/09 10:48:46;;;;;;;3.45;1.50;;;26.60;99.90;;;;;;4438064;28;656376;-70
2021/08/09 10:52:04;;;;;;;3.05;1.40;;;26.20;99.90;;;;;;4377235;28;657103;-69
2021/08/09 10:54:52;;;;;;;2.97;1.40;;;25.70;99.90;;;;;;4401397;28;657438;-69
2021/08/09 10:57:43;;;;;;;1.80;1.50;;;25.60;99.90;;;;;;4411182;28;656654;-70
2021/08/09 11:00:57;;;;;;;4.75;1.40;;;26.10;99.90;;;;;;4407363;28;657088;-69
2021/08/09 11:04:16;;;;;;;3.55;1.60;;;26.70;99.90;;;;;;4374383;28;656935;-69
2021/08/09 11:07:16;;;;;;;4.68;1.70;;;26.80;99.90;;;;;;4372039;28;656248;-70
2021/08/09 11:10:04;;;;;;;2.65;1.70;;;26.90;99.90;;;;;;4371387;28;656785;-69
2021/08/09 11:13:01;;;;;;;4.93;1.58;;;27.10;99.90;;;;;;4418432;28;656495;-69
2021/08/09 11:15:54;;;;;;;3.65;1.60;;;27.60;99.90;;;;;;4387249;28;657633;-69
2021/08/09 11:18:43;;;;;;;4.18;1.80;;;27.30;99.90;;;;;;4381341;28;656588;-69
2021/08/09 11:21:31;;;;;;;5.40;1.92;;;27.10;99.90;;;;;;4408947;28;657873;-69
2021/08/09 11:24:35;;;;;;;3.42;2.00;;;26.70;99.90;;;;;;4416573;28;656231;-69
2021/08/09 11:27:23;;;;;;;3.25;1.55;;;27.00;99.90;;;;;;4397181;28;657314;-69
2021/08/09 11:30:12;;;;;;;2.60;1.67;;;27.20;99.90;;;;;;4418786;28;656778;-69
2021/08/09 11:33:00;;;;;;;3.83;1.73;;;27.50;99.90;;;;;;4406423;28;657722;-69
2021/08/09 11:35:50;;;;;;;3.67;1.65;;;27.50;99.90;;;;;;4418428;28;657146;-69
2021/08/09 11:38:45;;;;;;;3.58;1.42;;;27.00;99.90;;;;;;4418737;28;656422;-68
2021/08/09 11:41:32;;;;;;;4.15;1.95;;;26.40;99.90;;;;;;4395977;28;656589;-68
2021/08/09 11:44:24;;;;;;;3.10;1.55;;;25.60;99.90;;;;;;4399305;28;657294;-68
2021/08/09 11:47:12;;;;;;;3.40;1.80;;;25.20;99.90;;;;;;4402684;28;657088;-69
2021/08/09 11:50:00;;;;;;;4.13;1.55;;;25.30;99.90;;;;;;4399795;28;656801;-69
2021/08/09 11:52:50;;;;;;;8.95;2.20;;;25.50;99.90;;;;;;4425246;28;657146;-69
2021/08/09 11:55:37;;;;;;;5.57;1.90;;;26.00;99.90;;;;;;4431075;28;657000;-69
2021/08/09 11:58:31;;;;;;;4.28;1.75;;;26.50;99.90;;;;;;4414390;28;657747;-69
2021/08/09 12:01:22;;;;;;;4.85;2.20;;;26.80;99.90;;;;;;4386003;28;657417;-69
2021/08/09 12:04:12;;;;;;;4.13;2.17;;;26.90;99.90;;;;;;4416213;28;658388;-69
2021/08/09 12:07:00;;;;;;;5.25;2.03;;;26.60;99.90;;;;;;4414825;28;658440;-69
2021/08/09 12:09:49;;;;;;;3.75;1.98;;;26.70;99.90;;;;;;4441409;28;656468;-69
2021/08/09 12:12:37;;;;;;;6.95;1.88;;;27.30;99.90;;;;;;4398335;28;657167;-70
2021/08/09 12:15:25;;;;;;;3.17;1.88;;;27.70;99.90;;;;;;4416583;28;657358;-70
2021/08/09 12:18:13;;;;;;;3.97;2.20;;;27.70;99.90;;;;;;4399773;28;656995;-70
2021/08/09 12:21:08;;;;;;;3.58;1.90;;;27.20;99.90;;;;;;4432553;28;656696;-70
2021/08/09 12:23:56;;;;;;;6.47;1.83;;;26.90;99.90;;;;;;4399963;28;657401;-70
2021/08/09 12:26:45;;;;;;;5.97;2.10;;;26.90;99.90;;;;;;4402006;28;656421;-70
2021/08/09 12:29:33;;;;;;;4.88;1.92;;;26.80;99.90;;;;;;4403193;28;656808;-70
2021/08/09 12:32:22;;;;;;;4.72;2.05;;;26.20;99.90;;;;;;4432087;28;656164;-70
2021/08/09 12:35:10;;;;;;;8.25;1.67;;;26.10;99.90;;;;;;4406940;28;658359;-69
2021/08/09 12:37:58;;;;;;;6.93;1.92;;;25.80;99.90;;;;;;4428228;28;657392;-69
2021/08/09 12:40:47;;;;;;;5.00;2.15;;;25.80;99.90;;;;;;4415971;28;657600;-69
2021/08/09 12:43:41;;;;;;;2.35;1.77;;;26.00;99.90;;;;;;4418183;28;656637;-70
2021/08/09 12:46:29;;;;;;;5.18;1.92;;;26.50;99.90;;;;;;4397109;28;656874;-69
2021/08/09 12:49:16;;;;;;;6.22;2.00;;;26.90;99.90;;;;;;4421842;28;656256;-69
2021/08/09 12:52:05;;;;;;;2.55;1.75;;;27.50;99.90;;;;;;4413412;28;656597;-70
2021/08/09 12:54:53;;;;;;;7.32;2.08;;;28.10;99.90;;;;;;4422112;28;656974;-70
2021/08/09 12:57:41;;;;;;;3.35;1.55;;;28.60;99.90;;;;;;4416689;28;656674;-70
2021/08/09 13:00:30;;;;;;;3.00;1.63;;;28.70;99.90;;;;;;4409432;28;656944;-70
2021/08/09 13:03:18;;;;;;;2.85;1.63;;;28.50;99.90;;;;;;4409231;28;656901;-70
2021/08/09 13:06:06;;;;;;;5.07;1.55;;;28.60;99.90;;;;;;4426203;28;656622;-70
2021/08/09 13:08:54;;;;;;;3.75;1.60;;;28.80;97.00;;;;;;4417896;28;656504;-70
2021/08/09 13:11:41;;;;;;;5.00;1.90;;;28.50;99.40;;;;;;4419035;28;657635;-69
2021/08/09 13:14:29;;;;;;;5.50;1.77;;;28.30;97.80;;;;;;4407671;28;656651;-69
2021/08/09 13:17:18;;;;;;;4.63;1.55;;;28.20;98.60;;;;;;4425488;28;656510;-70
2021/08/09 13:20:07;;;;;;;3.90;1.88;;;28.40;99.90;;;;;;4401875;28;658076;-70
2021/08/09 13:22:56;;;;;;;3.88;1.50;;;28.20;96.20;;;;;;4398635;28;656246;-70
2021/08/09 13:25:43;;;;;;;3.28;1.67;;;28.60;97.10;;;;;;4397078;28;657031;-70
2021/08/09 13:28:32;;;;;;;5.97;1.85;;;28.60;97.30;;;;;;4425454;28;657843;-70
2021/08/09 13:31:19;;;;;;;4.15;1.90;;;28.80;95.10;;;;;;4407924;28;656279;-70
2021/08/09 13:34:08;;;;;;;3.78;1.63;;;28.80;96.40;;;;;;4419253;28;656288;-69
2021/08/09 13:36:56;;;;;;;6.90;1.90;;;28.80;95.90;;;;;;4424767;28;657165;-69
2021/08/09 13:39:43;;;;;;;2.95;1.50;;;28.60;96.90;;;;;;4405289;28;657364;-68
2021/08/09 13:42:31;;;;;;;4.20;1.67;;;28.00;96.50;;;;;;4444248;28;657777;-68
2021/08/09 13:45:19;;;;;;;3.22;1.70;;;27.90;99.90;;;;;;4419466;28;656868;-69
2021/08/09 13:48:07;;;;;;;4.60;1.80;;;27.40;99.90;;;;;;4417666;28;657114;-68
2021/08/09 13:50:56;;;;;;;2.50;1.58;;;27.30;99.90;;;;;;4403983;28;657203;-68
2021/08/09 13:53:44;;;;;;;3.53;1.65;;;27.60;99.90;;;;;;4405944;28;656534;-68
2021/08/09 13:56:31;;;;;;;3.13;1.60;;;28.00;99.90;;;;;;4426850;28;656814;-68
2021/08/09 13:59:19;;;;;;;2.50;1.65;;;28.40;97.10;;;;;;4411460;28;657075;-69
2021/08/09 14:02:06;;;;;;;5.72;1.50;;;28.80;98.10;;;;;;4423540;28;656350;-69
2021/08/09 14:04:54;;;;;;;10.15;1.67;;;29.10;96.30;;;;;;4411125;28;656260;-68
2021/08/09 14:07:43;;;;;;;3.50;1.50;;;29.90;93.10;;;;;;4419881;28;658277;-69
2021/08/09 14:10:31;;;;;;;3.80;1.52;;;30.40;97.80;;;;;;4393014;28;657474;-69
2021/08/09 14:13:22;;;;;;;4.28;1.48;;;30.70;94.40;;;;;;4414084;28;656754;-69
2021/08/09 14:16:09;;;;;;;5.40;1.52;;;30.90;93.50;;;;;;4405754;28;656873;-69
2021/08/09 14:18:57;;;;;;;3.45;1.40;;;30.90;92.00;;;;;;4432759;28;656370;-69
2021/08/09 14:21:44;;;;;;;7.32;2.00;;;30.30;91.20;;;;;;4413823;28;657501;-69
2021/08/09 14:24:33;;;;;;;2.30;1.50;;;30.30;91.30;;;;;;4419677;28;657062;-69